Time;durP1;ratioP1;P1;durP2;ratioP2;P2;SDS_P1;SDS_P2;PMS_P1;PMS_P2;Temp;Humidity;BMP_temperature;BMP_pressure;BME280_temperature;BME280_humidity;BME280_pressure;Samples;Min_cycle;Max_cycle;Signal;HPM_P1;HPM_P2
2022/05/01 00:01:24;;;;;;;3.75;2.60;;;16.90;62.10;;;;;;5018822;28;20053;-63
2022/05/01 00:03:50;;;;;;;4.47;2.70;;;16.90;62.10;;;;;;5022954;28;20100;-63
2022/05/01 00:06:15;;;;;;;4.10;2.70;;;16.90;62.10;;;;;;5026620;28;20064;-63
2022/05/01 00:08:42;;;;;;;4.20;2.63;;;16.90;62.10;;;;;;5016286;28;20025;-63
2022/05/01 00:11:08;;;;;;;4.85;2.80;;;16.90;62.20;;;;;;5021601;28;20033;-63
2022/05/01 00:13:34;;;;;;;4.85;2.83;;;16.90;62.10;;;;;;5021515;28;20514;-63
2022/05/01 00:16:00;;;;;;;3.90;2.58;;;16.90;62.10;;;;;;5016568;28;20507;-63
2022/05/01 00:18:26;;;;;;;4.05;2.58;;;16.90;62.10;;;;;;5026030;28;20092;-63
2022/05/01 00:20:51;;;;;;;4.60;2.60;;;16.90;62.10;;;;;;5028976;28;20025;-63
2022/05/01 00:23:18;;;;;;;4.38;2.78;;;16.90;62.10;;;;;;5026901;28;20323;-63
2022/05/01 00:25:44;;;;;;;4.45;2.50;;;16.90;62.10;;;;;;5023811;28;20034;-63
2022/05/01 00:28:10;;;;;;;4.10;2.55;;;16.90;62.10;;;;;;5026781;28;20018;-63
2022/05/01 00:30:36;;;;;;;3.85;2.50;;;16.90;62.10;;;;;;5023525;28;20072;-63
2022/05/01 00:38:30;;;;;;;3.75;2.55;;;16.80;62.20;;;;;;5025598;28;20515;-63
2022/05/01 00:40:56;;;;;;;4.05;2.42;;;16.90;63.20;;;;;;5022637;28;20109;-63
2022/05/01 00:43:22;;;;;;;4.03;2.60;;;16.90;62.20;;;;;;5028004;28;20021;-63
2022/05/01 00:45:48;;;;;;;4.05;2.67;;;16.90;62.20;;;;;;5019442;28;20034;-63
2022/05/01 00:48:14;;;;;;;4.88;2.70;;;16.90;62.20;;;;;;5019896;28;20549;-63
2022/05/01 00:50:41;;;;;;;4.22;2.50;;;16.90;62.20;;;;;;5019894;28;20120;-63
2022/05/01 00:53:06;;;;;;;4.40;2.58;;;16.90;62.30;;;;;;5021304;28;20053;-64
2022/05/01 00:55:32;;;;;;;3.63;2.50;;;16.80;62.20;;;;;;5026455;28;20072;-63
2022/05/01 00:57:58;;;;;;;4.10;2.33;;;16.80;62.20;;;;;;5027128;28;20037;-63
2022/05/01 01:00:23;;;;;;;3.65;2.53;;;16.80;62.20;;;;;;5018016;28;20048;-63
2022/05/01 01:02:50;;;;;;;4.35;2.58;;;16.80;62.20;;;;;;5022061;28;20033;-64
2022/05/01 01:05:15;;;;;;;3.35;2.38;;;16.80;62.20;;;;;;5022256;28;20132;-63
2022/05/01 01:07:42;;;;;;;3.80;2.65;;;16.80;62.20;;;;;;5029072;28;20630;-63
2022/05/01 01:10:08;;;;;;;4.43;2.53;;;16.80;62.20;;;;;;5023172;28;20617;-63
2022/05/01 01:15:18;;;;;;;5.20;2.65;;;16.80;63.30;;;;;;5024966;28;20552;-63
2022/05/01 01:17:46;;;;;;;4.20;2.50;;;16.80;62.20;;;;;;5022143;28;20033;-63
2022/05/01 01:20:17;;;;;;;3.13;2.35;;;16.80;62.20;;;;;;5019396;28;20121;-63
2022/05/01 01:22:44;;;;;;;4.78;2.50;;;16.80;62.20;;;;;;5021522;28;20053;-63
2022/05/01 01:25:10;;;;;;;4.93;2.60;;;16.80;62.20;;;;;;5028766;28;20029;-63
2022/05/01 01:27:39;;;;;;;4.75;2.58;;;16.80;62.20;;;;;;5028429;28;20033;-63
2022/05/01 01:32:51;;;;;;;3.92;2.60;;;16.80;62.20;;;;;;5017090;28;20088;-63
2022/05/01 01:35:21;;;;;;;3.70;2.42;;;16.80;62.10;;;;;;5023849;28;20053;-63
2022/05/01 01:37:47;;;;;;;3.88;2.33;;;16.80;62.20;;;;;;5020272;28;20030;-63
2022/05/01 01:40:20;;;;;;;4.78;2.60;;;16.80;62.20;;;;;;5027821;28;20017;-63
2022/05/01 01:42:46;;;;;;;3.88;2.40;;;16.80;62.20;;;;;;5025472;28;20021;-63
2022/05/01 01:45:12;;;;;;;4.35;2.78;;;16.80;62.10;;;;;;5019549;28;20601;-63
2022/05/01 01:47:37;;;;;;;4.05;2.47;;;16.70;63.20;;;;;;5019721;28;20092;-62
2022/05/01 01:50:05;;;;;;;4.35;2.55;;;16.70;62.10;;;;;;5020972;28;20065;-63
2022/05/01 01:52:33;;;;;;;4.05;2.22;;;16.70;62.10;;;;;;5023580;28;20041;-63
2022/05/01 01:55:00;;;;;;;3.90;2.60;;;16.70;62.10;;;;;;5013659;28;20121;-63
2022/05/01 01:57:25;;;;;;;4.68;2.70;;;16.70;62.10;;;;;;5028810;28;20401;-64
2022/05/01 01:59:51;;;;;;;5.22;2.60;;;16.70;62.10;;;;;;5018355;28;20410;-63
2022/05/01 02:02:17;;;;;;;3.72;2.40;;;16.70;62.10;;;;;;5013714;28;20030;-63
2022/05/01 02:04:42;;;;;;;3.97;2.40;;;16.70;62.10;;;;;;5022711;28;20030;-63
2022/05/01 02:07:08;;;;;;;3.63;2.50;;;16.70;62.10;;;;;;5022801;28;20048;-63
2022/05/01 02:09:37;;;;;;;4.53;2.60;;;16.70;62.10;;;;;;5016578;28;20028;-63
2022/05/01 02:12:08;;;;;;;4.32;2.40;;;16.70;62.10;;;;;;5016323;28;20523;-63
2022/05/01 02:14:37;;;;;;;4.10;2.38;;;16.70;62.20;;;;;;5024771;28;20022;-63
2022/05/01 02:17:02;;;;;;;3.53;2.17;;;16.70;62.10;;;;;;5020332;28;20410;-63
2022/05/01 02:19:29;;;;;;;3.10;2.17;;;16.70;62.10;;;;;;5026043;28;20021;-63
2022/05/01 02:21:54;;;;;;;3.65;2.33;;;16.70;62.10;;;;;;5023812;28;20029;-63
2022/05/01 02:24:20;;;;;;;3.33;2.40;;;16.70;62.10;;;;;;5020355;28;20561;-63
2022/05/01 02:26:47;;;;;;;4.03;2.30;;;16.70;62.10;;;;;;5013437;28;20426;-63
2022/05/01 02:29:13;;;;;;;3.85;2.30;;;16.70;62.10;;;;;;5020746;28;20033;-63
2022/05/01 02:31:43;;;;;;;3.55;2.30;;;16.70;62.10;;;;;;5024473;28;20042;-63
2022/05/01 02:34:09;;;;;;;3.50;2.50;;;16.70;62.20;;;;;;5015681;28;20083;-63
2022/05/01 02:36:35;;;;;;;3.00;2.10;;;16.70;62.20;;;;;;5023844;28;20380;-63
2022/05/01 02:39:00;;;;;;;3.25;2.33;;;16.70;62.10;;;;;;5021094;28;20079;-63
2022/05/01 02:41:28;;;;;;;3.70;2.28;;;16.70;62.10;;;;;;5014080;28;20029;-63
2022/05/01 02:43:54;;;;;;;3.45;2.30;;;16.70;62.20;;;;;;5027815;28;20026;-63
2022/05/01 02:46:19;;;;;;;3.50;2.30;;;16.70;62.10;;;;;;5031329;28;20040;-63
2022/05/01 02:48:45;;;;;;;3.78;2.42;;;16.70;62.10;;;;;;5025559;28;20429;-63
2022/05/01 02:51:11;;;;;;;4.75;2.40;;;16.70;62.10;;;;;;5018155;28;20037;-63
2022/05/01 02:53:38;;;;;;;2.60;2.10;;;16.70;62.10;;;;;;5013449;28;20037;-63
2022/05/01 02:56:03;;;;;;;3.08;2.13;;;16.60;62.20;;;;;;5022083;28;20094;-63
2022/05/01 02:58:29;;;;;;;3.20;2.28;;;16.60;62.10;;;;;;5026284;28;20069;-64
2022/05/01 03:00:55;;;;;;;3.10;2.28;;;16.70;62.20;;;;;;5023262;28;20108;-63
2022/05/01 03:03:21;;;;;;;3.55;2.10;;;16.60;62.10;;;;;;5021308;28;20033;-63
2022/05/01 03:05:47;;;;;;;3.22;2.20;;;16.60;62.10;;;;;;5022591;28;20026;-63
2022/05/01 03:08:13;;;;;;;2.60;2.08;;;16.60;62.20;;;;;;5020434;28;20022;-63
2022/05/01 03:10:39;;;;;;;3.10;2.20;;;16.60;62.10;;;;;;5020988;28;20030;-63
2022/05/01 03:13:05;;;;;;;3.22;2.20;;;16.60;62.20;;;;;;5021038;28;20061;-63
2022/05/01 03:15:31;;;;;;;3.92;2.22;;;16.60;62.20;;;;;;5022905;28;20034;-63
2022/05/01 03:23:25;;;;;;;2.83;2.10;;;16.60;62.20;;;;;;5020202;28;20037;-63
2022/05/01 03:25:50;;;;;;;2.95;2.17;;;16.60;62.20;;;;;;5019016;28;20030;-63
2022/05/01 03:28:16;;;;;;;2.80;2.00;;;16.60;62.20;;;;;;5024040;28;20647;-64
2022/05/01 03:30:42;;;;;;;6.10;2.40;;;16.60;62.20;;;;;;5020109;28;20125;-63
2022/05/01 03:33:07;;;;;;;3.78;2.30;;;16.60;62.20;;;;;;5023365;28;20414;-63
2022/05/01 03:35:36;;;;;;;4.30;2.40;;;16.60;62.10;;;;;;5019048;28;20028;-63
2022/05/01 03:38:06;;;;;;;3.10;2.30;;;16.60;62.20;;;;;;5021624;28;20049;-64
2022/05/01 03:40:35;;;;;;;4.28;2.10;;;16.60;62.20;;;;;;5032488;28;20036;-63
2022/05/01 03:43:03;;;;;;;2.45;1.90;;;16.60;62.20;;;;;;5018086;28;20033;-63
2022/05/01 03:45:28;;;;;;;2.88;2.00;;;16.60;62.20;;;;;;5019275;28;20026;-63
2022/05/01 03:47:54;;;;;;;2.88;2.00;;;16.50;62.10;;;;;;5025802;28;20052;-63
2022/05/01 03:50:20;;;;;;;3.05;2.10;;;16.60;62.20;;;;;;5020973;28;20881;-63
2022/05/01 03:52:46;;;;;;;3.00;2.10;;;16.60;62.20;;;;;;5030102;28;20037;-63
2022/05/01 03:55:11;;;;;;;3.08;2.08;;;16.60;62.20;;;;;;5031773;28;20021;-63
2022/05/01 03:57:37;;;;;;;3.05;2.10;;;16.50;62.10;;;;;;5026538;28;20401;-63
2022/05/01 04:00:05;;;;;;;2.85;2.15;;;16.50;62.10;;;;;;5023545;28;20021;-63
2022/05/01 04:02:31;;;;;;;3.65;2.10;;;16.50;62.20;;;;;;5020504;28;20026;-62
2022/05/01 04:04:57;;;;;;;3.20;2.22;;;16.50;62.30;;;;;;5031112;28;20181;-63
2022/05/01 04:07:23;;;;;;;4.32;2.20;;;16.50;62.20;;;;;;5027271;28;20084;-63
2022/05/01 04:09:49;;;;;;;4.15;2.50;;;16.50;62.20;;;;;;5027542;28;20029;-63
2022/05/01 04:12:15;;;;;;;4.43;2.30;;;16.50;62.30;;;;;;5018398;28;20033;-63
2022/05/01 04:14:40;;;;;;;2.72;2.00;;;16.50;62.30;;;;;;5023277;28;20505;-63
2022/05/01 04:17:06;;;;;;;3.00;2.10;;;16.50;62.20;;;;;;5019989;28;20570;-62
2022/05/01 04:19:32;;;;;;;2.60;2.00;;;16.50;62.20;;;;;;5018363;28;20030;-63
2022/05/01 04:21:57;;;;;;;3.47;2.25;;;16.50;62.20;;;;;;5026705;28;20030;-63
2022/05/01 04:24:23;;;;;;;3.38;2.22;;;16.50;62.30;;;;;;5025973;28;20782;-62
2022/05/01 04:26:49;;;;;;;3.63;2.20;;;16.50;62.20;;;;;;5022579;28;20037;-63
2022/05/01 04:31:59;;;;;;;3.72;2.10;;;16.50;62.20;;;;;;5019309;28;20037;-62
2022/05/01 04:34:24;;;;;;;2.78;1.90;;;16.50;62.30;;;;;;5024551;28;20470;-62
2022/05/01 04:36:50;;;;;;;3.45;2.08;;;16.50;62.30;;;;;;5027239;28;20029;-63
2022/05/01 04:39:16;;;;;;;2.85;1.90;;;16.50;62.30;;;;;;5020749;28;20022;-63
2022/05/01 04:41:43;;;;;;;2.92;2.10;;;16.50;62.30;;;;;;5015135;28;20188;-62
2022/05/01 04:44:09;;;;;;;3.20;2.30;;;16.50;62.30;;;;;;5019992;28;20117;-63
2022/05/01 04:46:34;;;;;;;4.53;2.20;;;16.50;62.30;;;;;;5028903;28;20172;-63
2022/05/01 04:49:00;;;;;;;3.75;2.20;;;16.50;62.30;;;;;;5022638;28;20088;-62
2022/05/01 04:51:26;;;;;;;6.75;2.42;;;16.50;62.30;;;;;;5023823;28;20118;-62
2022/05/01 04:53:51;;;;;;;6.30;2.38;;;16.40;62.20;;;;;;5018463;28;20248;-62
2022/05/01 04:59:01;;;;;;;4.35;2.13;;;16.40;62.20;;;;;;5024665;28;20521;-62
2022/05/01 05:01:27;;;;;;;5.28;2.20;;;16.40;62.30;;;;;;5021074;28;20030;-62
2022/05/01 05:03:52;;;;;;;4.55;2.00;;;16.40;62.20;;;;;;5027125;28;20025;-63
2022/05/01 05:06:20;;;;;;;3.28;2.28;;;16.40;62.30;;;;;;5014732;28;20057;-62
2022/05/01 05:11:29;;;;;;;7.28;2.33;;;16.40;62.30;;;;;;5019224;28;20041;-62
2022/05/01 05:13:56;;;;;;;4.85;2.40;;;16.40;62.20;;;;;;5027445;28;20030;-62
2022/05/01 05:16:22;;;;;;;3.13;2.10;;;16.40;62.20;;;;;;5028592;28;20053;-62
2022/05/01 05:18:48;;;;;;;3.38;2.08;;;16.40;62.20;;;;;;5018785;28;20064;-63
2022/05/01 05:21:13;;;;;;;4.05;2.10;;;16.40;62.30;;;;;;5021969;28;20055;-63
2022/05/01 05:23:39;;;;;;;4.05;1.83;;;16.40;62.30;;;;;;5015278;28;20034;-62
2022/05/01 05:26:04;;;;;;;5.13;2.13;;;16.40;62.20;;;;;;5018207;28;20029;-63
2022/05/01 05:28:30;;;;;;;3.95;2.05;;;16.40;62.20;;;;;;5025261;28;20026;-63
2022/05/01 05:30:56;;;;;;;4.95;2.05;;;16.40;62.20;;;;;;5020273;28;20041;-63
2022/05/01 05:33:22;;;;;;;3.97;2.15;;;16.40;62.20;;;;;;5017455;28;20029;-63
2022/05/01 05:35:48;;;;;;;3.50;1.88;;;16.30;62.10;;;;;;5017328;28;20029;-62
2022/05/01 05:38:13;;;;;;;3.50;2.10;;;16.30;62.20;;;;;;5025193;28;20029;-63
2022/05/01 05:40:39;;;;;;;3.47;2.03;;;16.30;62.10;;;;;;5021348;28;20466;-62
2022/05/01 05:43:05;;;;;;;4.57;2.20;;;16.30;62.10;;;;;;5028069;28;20490;-63
2022/05/01 05:45:30;;;;;;;6.60;2.30;;;16.30;62.10;;;;;;5018504;28;20461;-63
2022/05/01 05:47:56;;;;;;;2.80;2.00;;;16.30;63.20;;;;;;5019392;28;20045;-62
2022/05/01 05:50:22;;;;;;;7.75;2.17;;;16.30;62.10;;;;;;5025704;28;20048;-62
2022/05/01 05:52:47;;;;;;;3.17;2.20;;;16.30;62.10;;;;;;5020647;28;20037;-63
2022/05/01 05:55:13;;;;;;;5.07;2.28;;;16.30;62.10;;;;;;5025386;28;20036;-63
2022/05/01 05:57:38;;;;;;;2.83;1.90;;;16.30;62.10;;;;;;5019266;28;20100;-61
2022/05/01 06:00:05;;;;;;;3.85;2.03;;;16.30;62.50;;;;;;5015587;28;20061;-63
2022/05/01 06:02:30;;;;;;;5.38;2.10;;;16.30;62.10;;;;;;5017480;28;20499;-62
2022/05/01 06:04:58;;;;;;;3.80;2.10;;;16.30;62.10;;;;;;5018968;28;20021;-62
2022/05/01 06:07:23;;;;;;;4.97;2.20;;;16.30;62.10;;;;;;5020656;28;20025;-63
2022/05/01 06:09:49;;;;;;;3.90;2.20;;;16.30;62.20;;;;;;5021487;28;20414;-62
2022/05/01 06:12:14;;;;;;;5.43;2.40;;;16.30;62.10;;;;;;5015172;28;20525;-62
2022/05/01 06:14:40;;;;;;;4.03;1.98;;;16.30;62.10;;;;;;5015926;28;20504;-63
2022/05/01 06:17:06;;;;;;;3.20;2.05;;;16.30;62.10;;;;;;5020581;28;20030;-62
2022/05/01 06:19:32;;;;;;;3.35;2.03;;;16.30;62.10;;;;;;5028786;28;20033;-62
2022/05/01 06:21:57;;;;;;;5.82;2.10;;;16.30;62.10;;;;;;5026183;28;20017;-63
2022/05/01 06:24:23;;;;;;;7.35;2.35;;;16.30;62.10;;;;;;5025705;28;20025;-62
2022/05/01 06:26:48;;;;;;;5.70;2.10;;;16.30;62.10;;;;;;5015414;28;20033;-63
2022/05/01 06:29:14;;;;;;;4.80;2.15;;;16.30;62.10;;;;;;5020015;28;20079;-63
2022/05/01 06:31:40;;;;;;;4.13;2.15;;;16.30;62.10;;;;;;5021223;28;20029;-63
2022/05/01 06:34:05;;;;;;;6.57;2.30;;;16.20;62.00;;;;;;5022773;28;20032;-63
2022/05/01 06:36:31;;;;;;;4.93;2.17;;;16.30;62.10;;;;;;5028025;28;20028;-62
2022/05/01 06:38:57;;;;;;;4.03;2.03;;;16.30;62.20;;;;;;5020254;28;20116;-63
2022/05/01 06:41:22;;;;;;;5.75;2.25;;;16.20;62.10;;;;;;5021187;28;20026;-62
2022/05/01 06:43:48;;;;;;;4.55;2.20;;;16.20;62.10;;;;;;5020874;28;20022;-62
2022/05/01 06:46:14;;;;;;;4.25;2.10;;;16.30;62.20;;;;;;5017793;28;20026;-63
2022/05/01 06:48:40;;;;;;;4.55;2.00;;;16.20;62.20;;;;;;5017024;28;20418;-62
2022/05/01 06:51:05;;;;;;;3.95;2.00;;;16.30;62.20;;;;;;5013548;28;20494;-63
2022/05/01 06:53:31;;;;;;;5.40;2.10;;;16.20;62.20;;;;;;5012450;28;20061;-63
2022/05/01 06:55:57;;;;;;;5.22;2.40;;;16.20;62.10;;;;;;5025619;28;20314;-62
2022/05/01 06:58:22;;;;;;;3.60;1.98;;;16.20;62.10;;;;;;5032127;28;20025;-62
2022/05/01 07:00:49;;;;;;;5.30;2.13;;;16.20;62.20;;;;;;5026032;28;20397;-62
2022/05/01 07:03:15;;;;;;;4.03;2.20;;;16.20;62.20;;;;;;5026523;28;20037;-62
2022/05/01 07:05:41;;;;;;;6.65;2.08;;;16.20;62.20;;;;;;5024931;28;20502;-62
2022/05/01 07:08:07;;;;;;;3.75;1.95;;;16.20;62.30;;;;;;5019473;28;20045;-62
2022/05/01 07:10:32;;;;;;;3.72;2.05;;;16.20;62.20;;;;;;5027370;28;20038;-62
2022/05/01 07:12:58;;;;;;;3.53;2.00;;;16.20;62.20;;;;;;5030926;28;20083;-63
2022/05/01 07:15:24;;;;;;;4.90;2.22;;;16.20;62.20;;;;;;5028121;28;20033;-62
2022/05/01 07:17:49;;;;;;;5.95;2.40;;;16.20;62.20;;;;;;5024386;28;20032;-63
2022/05/01 07:20:15;;;;;;;3.70;2.10;;;16.20;62.20;;;;;;5019959;28;20033;-62
2022/05/01 07:22:40;;;;;;;5.10;2.10;;;16.20;62.20;;;;;;5030661;28;20486;-62
2022/05/01 07:25:06;;;;;;;4.35;1.98;;;16.20;62.20;;;;;;5021158;28;20029;-62
2022/05/01 07:27:32;;;;;;;3.28;1.80;;;16.20;62.20;;;;;;5020713;28;20052;-62
2022/05/01 07:29:58;;;;;;;4.65;2.13;;;16.20;62.20;;;;;;5018758;28;20041;-63
2022/05/01 07:32:23;;;;;;;4.25;2.13;;;16.20;62.20;;;;;;5024543;28;20030;-63
2022/05/01 07:34:49;;;;;;;4.82;2.40;;;16.20;62.20;;;;;;5028280;28;20025;-62
2022/05/01 07:37:16;;;;;;;4.60;2.10;;;16.20;62.20;;;;;;5033766;28;20116;-62
2022/05/01 07:39:42;;;;;;;5.20;2.35;;;16.20;62.20;;;;;;5027070;28;20026;-62
2022/05/01 07:42:07;;;;;;;3.45;2.20;;;16.20;62.20;;;;;;5017545;28;20066;-63
2022/05/01 07:44:33;;;;;;;6.63;2.15;;;16.20;62.30;;;;;;5021425;28;20026;-63
2022/05/01 07:46:59;;;;;;;4.50;2.00;;;16.20;62.30;;;;;;5030898;28;20064;-62
2022/05/01 07:49:25;;;;;;;3.00;1.83;;;16.20;62.20;;;;;;5023146;28;20379;-63
2022/05/01 07:51:50;;;;;;;5.50;2.25;;;16.20;62.30;;;;;;5035101;28;20094;-62
2022/05/01 07:54:16;;;;;;;5.32;2.35;;;16.20;62.30;;;;;;5023248;28;20405;-62
2022/05/01 07:56:42;;;;;;;3.92;1.90;;;16.20;62.30;;;;;;5021685;28;20565;-62
2022/05/01 07:59:08;;;;;;;5.43;2.20;;;16.20;62.30;;;;;;5023905;28;20021;-62
2022/05/01 08:01:34;;;;;;;2.80;1.95;;;16.20;62.30;;;;;;5032527;28;20563;-62
2022/05/01 08:06:44;;;;;;;5.43;2.20;;;16.20;62.30;;;;;;5024381;28;20045;-62
2022/05/01 08:09:10;;;;;;;4.97;2.20;;;16.20;62.30;;;;;;5019742;28;20025;-62
2022/05/01 08:11:35;;;;;;;5.10;2.17;;;16.20;62.30;;;;;;5023095;28;20048;-63
2022/05/01 08:14:01;;;;;;;5.40;2.10;;;16.20;62.30;;;;;;5027273;28;20064;-62
2022/05/01 08:16:27;;;;;;;4.85;2.30;;;16.20;62.30;;;;;;5030723;28;20040;-62
2022/05/01 08:21:36;;;;;;;5.10;2.30;;;16.20;62.20;;;;;;5024294;28;20041;-63
2022/05/01 08:24:05;;;;;;;6.47;2.20;;;16.20;62.20;;;;;;5022521;28;20021;-62
2022/05/01 08:26:33;;;;;;;4.75;2.17;;;16.20;62.30;;;;;;5014341;28;20457;-62
2022/05/01 08:28:58;;;;;;;6.00;2.25;;;16.20;62.30;;;;;;5015971;28;20053;-61
2022/05/01 08:31:24;;;;;;;4.47;2.10;;;16.20;62.30;;;;;;5021527;28;20481;-62
2022/05/01 08:33:50;;;;;;;4.05;1.90;;;16.20;62.40;;;;;;5017556;28;20118;-62
2022/05/01 08:36:15;;;;;;;3.05;2.10;;;16.20;62.40;;;;;;5022853;28;20116;-63
2022/05/01 08:38:42;;;;;;;3.90;2.10;;;16.20;62.40;;;;;;5021578;28;20021;-63
2022/05/01 08:41:08;;;;;;;3.33;2.20;;;16.30;62.50;;;;;;5023361;28;20038;-62
2022/05/01 08:43:34;;;;;;;2.83;2.10;;;16.30;62.40;;;;;;5030107;28;20045;-62
2022/05/01 08:46:26;;;;;;;3.78;2.08;;;16.30;62.50;;;;;;5026762;28;20030;-62
2022/05/01 08:49:05;;;;;;;2.90;2.10;;;16.30;62.60;;;;;;5026142;28;20155;-63
2022/05/01 08:51:32;;;;;;;3.65;2.20;;;16.30;62.60;;;;;;5022461;28;20374;-62
2022/05/01 08:53:58;;;;;;;3.45;2.10;;;16.30;62.50;;;;;;5020130;28;20032;-62
2022/05/01 08:56:25;;;;;;;3.75;2.10;;;16.30;62.50;;;;;;5023608;28;20430;-63
2022/05/01 08:58:50;;;;;;;3.28;1.75;;;16.20;62.50;;;;;;5031487;28;20036;-62
2022/05/01 09:01:17;;;;;;;7.03;2.30;;;16.30;62.50;;;;;;5021066;28;20029;-62
2022/05/01 09:03:46;;;;;;;3.55;2.30;;;16.30;62.50;;;;;;5023445;28;20029;-62
2022/05/01 09:06:12;;;;;;;4.47;2.22;;;16.30;62.50;;;;;;5022806;28;20107;-63
2022/05/01 09:08:40;;;;;;;3.47;2.00;;;16.30;62.50;;;;;;5028146;28;20502;-62
2022/05/01 09:13:50;;;;;;;4.57;2.10;;;16.30;62.50;;;;;;5021461;28;20083;-62
2022/05/01 09:16:16;;;;;;;3.47;2.08;;;16.40;62.60;;;;;;5023899;28;20120;-62
2022/05/01 09:18:43;;;;;;;3.78;2.10;;;16.30;62.50;;;;;;5021372;28;20059;-63
2022/05/01 09:21:09;;;;;;;3.85;2.33;;;16.30;62.60;;;;;;5019563;28;20064;-62
2022/05/01 09:23:42;;;;;;;3.03;2.05;;;16.30;62.60;;;;;;5025559;28;20487;-63
2022/05/01 09:26:09;;;;;;;4.00;2.33;;;16.30;62.60;;;;;;5017729;28;20034;-62
2022/05/01 09:28:35;;;;;;;4.70;2.08;;;16.30;62.60;;;;;;5025694;28;20033;-63
2022/05/01 09:31:00;;;;;;;4.25;2.10;;;16.40;62.60;;;;;;5014563;28;20036;-62
2022/05/01 09:33:26;;;;;;;4.95;2.15;;;16.40;62.60;;;;;;5026156;28;20029;-63
2022/05/01 09:35:52;;;;;;;3.88;2.17;;;16.40;62.50;;;;;;5016320;28;20030;-63
2022/05/01 09:38:28;;;;;;;4.97;2.17;;;16.40;62.50;;;;;;5021501;28;20026;-63
2022/05/01 09:40:57;;;;;;;3.38;2.30;;;16.40;62.50;;;;;;5021715;28;20217;-63
2022/05/01 09:43:36;;;;;;;2.72;1.90;;;16.40;62.50;;;;;;5020831;28;20053;-63
2022/05/01 09:46:18;;;;;;;3.03;2.05;;;16.40;62.50;;;;;;5061697;28;20140;-63
2022/05/01 09:49:04;;;;;;;4.25;2.40;;;16.40;62.50;;;;;;5058167;28;20228;-63
2022/05/01 09:51:34;;;;;;;4.70;2.00;;;16.40;62.60;;;;;;5050262;28;20028;-63
2022/05/01 09:54:01;;;;;;;4.20;2.40;;;16.40;62.50;;;;;;5051418;28;20020;-63
2022/05/01 09:56:26;;;;;;;3.40;2.05;;;16.40;62.50;;;;;;5061216;28;20474;-62
2022/05/01 09:59:02;;;;;;;3.97;2.15;;;16.40;62.50;;;;;;5056121;28;20032;-63
2022/05/01 10:01:28;;;;;;;3.63;2.03;;;16.50;62.60;;;;;;5060958;28;20029;-63
2022/05/01 10:03:53;;;;;;;2.97;2.13;;;16.50;62.60;;;;;;5056336;28;20036;-63
2022/05/01 10:06:19;;;;;;;2.80;1.90;;;16.50;62.60;;;;;;5057039;28;20515;-62
2022/05/01 10:08:45;;;;;;;3.17;2.00;;;16.50;62.60;;;;;;5053072;28;20584;-63
2022/05/01 10:11:16;;;;;;;3.75;2.03;;;16.50;62.60;;;;;;5053979;28;20033;-63
2022/05/01 10:13:43;;;;;;;3.08;2.28;;;16.50;62.60;;;;;;5063524;28;20037;-63
2022/05/01 10:16:11;;;;;;;4.25;2.08;;;16.50;62.60;;;;;;5057880;28;20509;-63
2022/05/01 10:18:38;;;;;;;3.85;1.95;;;16.50;62.60;;;;;;5063736;28;20452;-63
2022/05/01 10:21:04;;;;;;;2.95;2.10;;;16.50;62.60;;;;;;5055365;28;20032;-62
2022/05/01 10:23:30;;;;;;;3.60;2.00;;;16.50;62.60;;;;;;5053576;28;20029;-63
2022/05/01 10:26:18;;;;;;;5.25;2.15;;;16.50;62.60;;;;;;5054797;28;20083;-63
2022/05/01 10:28:47;;;;;;;3.80;2.38;;;16.60;62.60;;;;;;5065613;28;20025;-63
2022/05/01 10:34:38;;;;;;;3.97;2.10;;;16.60;62.60;;;;;;5058833;28;20072;-63
2022/05/01 10:37:14;;;;;;;3.90;2.05;;;16.60;62.60;;;;;;5047706;28;20267;-62
2022/05/01 10:39:40;;;;;;;3.03;2.05;;;16.60;62.60;;;;;;5083644;28;20144;-62
2022/05/01 10:42:07;;;;;;;3.78;2.30;;;16.60;62.60;;;;;;5079880;28;20041;-63
2022/05/01 10:44:36;;;;;;;3.50;2.20;;;16.60;62.60;;;;;;5055040;28;20037;-63
2022/05/01 10:47:12;;;;;;;3.13;2.10;;;16.60;62.60;;;;;;5060023;28;20037;-62
2022/05/01 10:49:44;;;;;;;3.30;1.90;;;16.60;62.70;;;;;;5056148;28;20056;-63
2022/05/01 10:52:15;;;;;;;4.18;2.08;;;16.60;62.60;;;;;;5058953;28;20030;-63
2022/05/01 10:54:41;;;;;;;5.22;2.22;;;16.70;62.70;;;;;;5059577;28;20047;-63
2022/05/01 10:57:09;;;;;;;3.65;2.13;;;16.70;62.70;;;;;;5038358;28;20425;-63
2022/05/01 10:59:39;;;;;;;2.88;2.08;;;16.60;62.60;;;;;;5037319;28;20100;-63
2022/05/01 11:02:19;;;;;;;3.70;2.20;;;16.60;62.70;;;;;;5036661;28;20030;-63
2022/05/01 11:04:45;;;;;;;5.00;2.17;;;16.70;62.70;;;;;;5049654;28;20044;-63
2022/05/01 11:07:13;;;;;;;2.95;2.08;;;16.70;62.70;;;;;;5047784;28;20021;-63
2022/05/01 11:09:42;;;;;;;3.75;2.30;;;16.70;62.80;;;;;;5043010;28;20059;-63
2022/05/01 11:12:08;;;;;;;3.40;2.00;;;16.70;62.70;;;;;;5066904;28;20034;-63
2022/05/01 11:14:40;;;;;;;3.65;2.22;;;16.70;62.80;;;;;;5037139;28;20102;-63
2022/05/01 11:17:07;;;;;;;3.47;2.25;;;16.70;62.80;;;;;;5034743;28;20026;-63
2022/05/01 11:19:51;;;;;;;3.15;2.30;;;16.70;62.80;;;;;;5047960;28;20033;-63
2022/05/01 11:22:25;;;;;;;3.00;2.10;;;16.80;62.90;;;;;;5040677;28;20076;-63
2022/05/01 11:24:51;;;;;;;3.55;2.10;;;16.70;62.90;;;;;;5054304;28;20675;-63
2022/05/01 11:27:17;;;;;;;3.65;2.17;;;16.80;62.90;;;;;;5044574;28;20016;-63
2022/05/01 11:30:09;;;;;;;3.03;2.15;;;16.80;62.80;;;;;;5038238;28;20065;-63
2022/05/01 11:32:47;;;;;;;4.93;2.50;;;16.80;62.90;;;;;;5037894;28;20455;-63
2022/05/01 11:35:13;;;;;;;2.97;2.00;;;16.80;62.90;;;;;;5046215;28;20527;-63
2022/05/01 11:38:03;;;;;;;3.45;2.30;;;16.80;62.90;;;;;;5038432;28;20028;-63
2022/05/01 11:40:30;;;;;;;4.20;2.08;;;16.80;62.90;;;;;;5049732;28;20040;-63
2022/05/01 11:43:18;;;;;;;3.83;2.13;;;16.80;62.90;;;;;;5049831;28;20028;-63
2022/05/01 11:45:45;;;;;;;3.75;2.30;;;16.80;62.80;;;;;;5038020;28;20192;-63
2022/05/01 11:48:17;;;;;;;3.38;2.20;;;16.90;62.90;;;;;;5042155;28;20486;-63
2022/05/01 11:50:43;;;;;;;2.75;1.95;;;16.80;62.90;;;;;;5043572;28;20505;-63
2022/05/01 11:53:35;;;;;;;4.00;2.13;;;16.90;62.90;;;;;;5039628;28;20025;-63
2022/05/01 12:04:38;;;;;;;3.67;2.40;;;16.90;62.90;;;;;;5037903;28;20402;-63
2022/05/01 12:07:15;;;;;;;4.13;2.20;;;16.90;63.00;;;;;;5043733;28;20025;-63
2022/05/01 12:09:41;;;;;;;3.25;2.17;;;16.90;63.10;;;;;;5043589;28;20382;-63
2022/05/01 12:12:11;;;;;;;3.88;2.40;;;16.90;63.00;;;;;;5041946;28;20074;-63
2022/05/01 12:14:41;;;;;;;3.28;2.30;;;16.90;63.00;;;;;;5041771;28;20115;-63
2022/05/01 12:17:07;;;;;;;4.35;2.70;;;16.90;63.00;;;;;;5043202;28;20280;-63
2022/05/01 12:19:36;;;;;;;5.97;2.50;;;17.00;63.10;;;;;;5041359;28;20074;-63
2022/05/01 12:22:03;;;;;;;4.50;2.83;;;17.00;63.20;;;;;;5041015;28;20120;-63
2022/05/01 12:24:29;;;;;;;3.58;2.15;;;17.00;63.30;;;;;;5074746;28;20028;-63
2022/05/01 12:26:55;;;;;;;6.18;2.80;;;17.00;63.20;;;;;;5038893;28;20031;-63
2022/05/01 12:29:21;;;;;;;5.68;2.92;;;17.00;63.20;;;;;;5047098;28;20033;-63
2022/05/01 12:32:03;;;;;;;4.47;2.50;;;17.00;63.30;;;;;;5040830;28;20029;-63
2022/05/01 12:34:29;;;;;;;4.13;2.28;;;17.00;63.20;;;;;;5040575;28;20493;-64
2022/05/01 12:36:58;;;;;;;4.50;2.67;;;17.00;63.30;;;;;;5048390;28;20474;-63
2022/05/01 12:39:25;;;;;;;4.35;2.65;;;17.00;63.20;;;;;;5041696;28;20036;-63
2022/05/01 12:45:22;;;;;;;4.35;2.70;;;17.00;63.30;;;;;;5037534;28;20169;-63
2022/05/01 12:47:51;;;;;;;3.80;2.50;;;17.10;63.30;;;;;;5018329;28;20030;-63
2022/05/01 12:50:19;;;;;;;3.95;2.47;;;17.00;63.20;;;;;;5018669;28;20050;-63
2022/05/01 12:52:49;;;;;;;3.58;2.53;;;17.10;63.30;;;;;;5022138;28;20056;-63
2022/05/01 12:55:19;;;;;;;4.00;2.45;;;17.10;63.30;;;;;;5017901;28;20034;-63
2022/05/01 12:57:52;;;;;;;3.67;2.55;;;17.10;63.40;;;;;;5017585;28;20040;-63
2022/05/01 13:00:34;;;;;;;3.70;2.40;;;17.10;64.40;;;;;;5019416;28;20613;-63
2022/05/01 13:03:13;;;;;;;4.25;2.63;;;17.10;63.30;;;;;;5005259;28;20430;-63
2022/05/01 13:05:39;;;;;;;3.97;2.78;;;17.10;63.30;;;;;;5010136;28;20046;-62
2022/05/01 13:08:17;;;;;;;3.80;2.60;;;17.10;63.30;;;;;;5018647;28;20554;-63
2022/05/01 13:10:43;;;;;;;4.97;2.80;;;17.10;63.30;;;;;;5023571;28;20056;-63
2022/05/01 13:13:08;;;;;;;4.88;2.60;;;17.10;63.30;;;;;;5020537;28;20546;-63
2022/05/01 13:15:37;;;;;;;3.92;2.40;;;17.10;64.40;;;;;;5000562;28;20034;-63
2022/05/01 13:18:03;;;;;;;4.95;2.65;;;17.10;63.30;;;;;;5024232;28;20080;-64
2022/05/01 13:20:29;;;;;;;4.63;2.70;;;17.10;63.30;;;;;;5021439;28;22957;-63
2022/05/01 13:22:54;;;;;;;3.58;2.55;;;17.10;63.30;;;;;;5040079;28;20501;-64
2022/05/01 13:25:20;;;;;;;3.45;2.55;;;17.10;63.40;;;;;;5046509;28;20513;-63
2022/05/01 13:27:47;;;;;;;4.70;2.90;;;17.20;63.40;;;;;;5033251;28;20379;-63
2022/05/01 13:30:13;;;;;;;4.47;2.63;;;17.20;63.30;;;;;;5040862;28;20032;-63
2022/05/01 13:32:39;;;;;;;4.03;2.67;;;17.20;63.30;;;;;;5033018;28;20100;-63
2022/05/01 13:35:04;;;;;;;5.15;2.60;;;17.20;63.40;;;;;;5034451;28;20033;-63
2022/05/01 13:37:32;;;;;;;4.68;2.90;;;17.20;63.30;;;;;;5040102;28;20024;-63